sensor_id;sensor_type;location;lat;lon;timestamp;P1;durP1;ratioP1;P2;durP2;ratioP2
16101;SDS011;56411;52.964;10.540;2023-12-29T00:01:34;9.17;;;2.60;;
16101;SDS011;56411;52.964;10.540;2023-12-29T00:04:01;9.90;;;3.17;;
16101;SDS011;56411;52.964;10.540;2023-12-29T00:06:29;9.25;;;2.50;;
16101;SDS011;56411;52.964;10.540;2023-12-29T00:08:56;8.48;;;2.50;;
16101;SDS011;56411;52.964;10.540;2023-12-29T00:11:25;9.10;;;2.67;;
16101;SDS011;56411;52.964;10.540;2023-12-29T00:13:52;7.33;;;2.30;;
16101;SDS011;56411;52.964;10.540;2023-12-29T00:16:20;10.20;;;2.30;;
16101;SDS011;56411;52.964;10.540;2023-12-29T00:18:47;6.43;;;2.60;;
16101;SDS011;56411;52.964;10.540;2023-12-29T00:21:15;9.50;;;2.50;;
16101;SDS011;56411;52.964;10.540;2023-12-29T00:23:42;10.17;;;2.90;;
16101;SDS011;56411;52.964;10.540;2023-12-29T00:26:09;9.93;;;2.45;;
16101;SDS011;56411;52.964;10.540;2023-12-29T00:28:36;6.35;;;2.20;;
16101;SDS011;56411;52.964;10.540;2023-12-29T00:31:05;9.57;;;2.60;;
16101;SDS011;56411;52.964;10.540;2023-12-29T00:33:34;9.40;;;2.40;;
16101;SDS011;56411;52.964;10.540;2023-12-29T00:36:01;12.13;;;2.65;;
16101;SDS011;56411;52.964;10.540;2023-12-29T00:38:28;8.37;;;2.20;;
16101;SDS011;56411;52.964;10.540;2023-12-29T00:40:55;9.48;;;2.40;;
16101;SDS011;56411;52.964;10.540;2023-12-29T00:43:22;11.23;;;2.50;;
16101;SDS011;56411;52.964;10.540;2023-12-29T00:45:50;6.97;;;2.33;;
16101;SDS011;56411;52.964;10.540;2023-12-29T00:48:17;8.83;;;2.40;;
16101;SDS011;56411;52.964;10.540;2023-12-29T00:50:46;6.00;;;2.20;;
16101;SDS011;56411;52.964;10.540;2023-12-29T00:53:13;11.27;;;2.47;;
16101;SDS011;56411;52.964;10.540;2023-12-29T00:55:40;9.07;;;2.50;;
16101;SDS011;56411;52.964;10.540;2023-12-29T00:58:07;8.40;;;2.40;;
16101;SDS011;56411;52.964;10.540;2023-12-29T01:00:34;7.77;;;2.27;;
16101;SDS011;56411;52.964;10.540;2023-12-29T01:03:01;10.47;;;2.80;;
16101;SDS011;56411;52.964;10.540;2023-12-29T01:05:29;10.97;;;2.50;;
16101;SDS011;56411;52.964;10.540;2023-12-29T01:07:58;9.47;;;2.40;;
16101;SDS011;56411;52.964;10.540;2023-12-29T01:10:25;7.97;;;2.13;;
16101;SDS011;56411;52.964;10.540;2023-12-29T01:12:52;9.57;;;2.40;;
16101;SDS011;56411;52.964;10.540;2023-12-29T01:15:19;8.97;;;2.50;;
16101;SDS011;56411;52.964;10.540;2023-12-29T01:17:46;8.27;;;2.33;;
16101;SDS011;56411;52.964;10.540;2023-12-29T01:20:13;9.73;;;2.63;;
16101;SDS011;56411;52.964;10.540;2023-12-29T01:22:41;9.57;;;2.83;;
16101;SDS011;56411;52.964;10.540;2023-12-29T01:25:09;8.97;;;2.43;;
16101;SDS011;56411;52.964;10.540;2023-12-29T01:27:38;9.93;;;2.70;;
16101;SDS011;56411;52.964;10.540;2023-12-29T01:30:06;7.60;;;2.30;;
16101;SDS011;56411;52.964;10.540;2023-12-29T01:32:35;8.38;;;2.50;;
16101;SDS011;56411;52.964;10.540;2023-12-29T01:35:03;7.33;;;2.40;;
16101;SDS011;56411;52.964;10.540;2023-12-29T01:37:30;7.93;;;2.40;;
16101;SDS011;56411;52.964;10.540;2023-12-29T01:39:58;10.40;;;2.28;;
16101;SDS011;56411;52.964;10.540;2023-12-29T01:42:27;9.00;;;2.40;;
16101;SDS011;56411;52.964;10.540;2023-12-29T01:44:54;10.87;;;2.37;;
16101;SDS011;56411;52.964;10.540;2023-12-29T01:47:22;6.93;;;2.27;;
16101;SDS011;56411;52.964;10.540;2023-12-29T01:49:49;9.27;;;2.47;;
16101;SDS011;56411;52.964;10.540;2023-12-29T01:52:16;10.73;;;2.50;;
16101;SDS011;56411;52.964;10.540;2023-12-29T01:54:44;10.17;;;2.50;;
16101;SDS011;56411;52.964;10.540;2023-12-29T01:57:14;13.60;;;3.03;;
16101;SDS011;56411;52.964;10.540;2023-12-29T01:59:43;8.33;;;2.50;;
16101;SDS011;56411;52.964;10.540;2023-12-29T02:02:10;9.57;;;2.40;;
16101;SDS011;56411;52.964;10.540;2023-12-29T02:04:38;8.47;;;2.20;;
16101;SDS011;56411;52.964;10.540;2023-12-29T02:07:08;9.07;;;2.57;;
16101;SDS011;56411;52.964;10.540;2023-12-29T02:09:35;8.47;;;2.40;;
16101;SDS011;56411;52.964;10.540;2023-12-29T02:12:04;9.70;;;2.63;;
16101;SDS011;56411;52.964;10.540;2023-12-29T02:14:31;9.80;;;2.70;;
16101;SDS011;56411;52.964;10.540;2023-12-29T02:17:01;10.83;;;2.70;;
16101;SDS011;56411;52.964;10.540;2023-12-29T02:19:37;7.97;;;2.53;;
16101;SDS011;56411;52.964;10.540;2023-12-29T02:22:06;10.93;;;3.13;;
16101;SDS011;56411;52.964;10.540;2023-12-29T02:24:34;10.77;;;2.70;;
16101;SDS011;56411;52.964;10.540;2023-12-29T02:27:05;11.73;;;2.70;;
16101;SDS011;56411;52.964;10.540;2023-12-29T02:29:40;12.57;;;2.40;;
16101;SDS011;56411;52.964;10.540;2023-12-29T02:32:11;8.83;;;2.50;;
16101;SDS011;56411;52.964;10.540;2023-12-29T02:34:43;9.40;;;2.60;;
16101;SDS011;56411;52.964;10.540;2023-12-29T02:37:14;9.70;;;2.80;;
16101;SDS011;56411;52.964;10.540;2023-12-29T02:39:42;10.73;;;2.80;;
16101;SDS011;56411;52.964;10.540;2023-12-29T02:42:10;10.63;;;2.83;;
16101;SDS011;56411;52.964;10.540;2023-12-29T02:44:37;8.40;;;2.40;;
16101;SDS011;56411;52.964;10.540;2023-12-29T02:47:04;9.93;;;2.83;;
16101;SDS011;56411;52.964;10.540;2023-12-29T02:49:32;12.30;;;2.60;;
16101;SDS011;56411;52.964;10.540;2023-12-29T02:51:59;12.37;;;2.67;;
16101;SDS011;56411;52.964;10.540;2023-12-29T02:54:26;10.33;;;2.47;;
16101;SDS011;56411;52.964;10.540;2023-12-29T02:56:53;9.50;;;2.80;;
16101;SDS011;56411;52.964;10.540;2023-12-29T02:59:22;9.93;;;2.70;;
16101;SDS011;56411;52.964;10.540;2023-12-29T03:01:49;9.93;;;2.83;;
16101;SDS011;56411;52.964;10.540;2023-12-29T03:04:17;10.73;;;2.70;;
16101;SDS011;56411;52.964;10.540;2023-12-29T03:06:43;11.63;;;2.80;;
16101;SDS011;56411;52.964;10.540;2023-12-29T03:09:11;9.90;;;2.70;;
16101;SDS011;56411;52.964;10.540;2023-12-29T03:11:38;10.57;;;2.80;;
16101;SDS011;56411;52.964;10.540;2023-12-29T03:14:05;11.37;;;3.00;;
16101;SDS011;56411;52.964;10.540;2023-12-29T03:16:33;8.07;;;2.67;;
16101;SDS011;56411;52.964;10.540;2023-12-29T03:19:00;10.63;;;3.03;;
16101;SDS011;56411;52.964;10.540;2023-12-29T03:21:27;10.27;;;3.10;;
16101;SDS011;56411;52.964;10.540;2023-12-29T03:23:54;8.53;;;2.70;;
16101;SDS011;56411;52.964;10.540;2023-12-29T03:26:21;9.60;;;2.73;;
16101;SDS011;56411;52.964;10.540;2023-12-29T03:28:48;11.43;;;2.70;;
16101;SDS011;56411;52.964;10.540;2023-12-29T03:31:16;11.00;;;3.00;;
16101;SDS011;56411;52.964;10.540;2023-12-29T03:33:44;9.40;;;2.70;;
16101;SDS011;56411;52.964;10.540;2023-12-29T03:36:11;10.60;;;2.87;;
16101;SDS011;56411;52.964;10.540;2023-12-29T03:38:38;8.70;;;2.80;;
16101;SDS011;56411;52.964;10.540;2023-12-29T03:41:06;10.67;;;3.07;;
16101;SDS011;56411;52.964;10.540;2023-12-29T03:43:33;12.03;;;3.27;;
16101;SDS011;56411;52.964;10.540;2023-12-29T03:46:00;11.47;;;2.83;;
16101;SDS011;56411;52.964;10.540;2023-12-29T03:48:27;11.43;;;2.90;;
16101;SDS011;56411;52.964;10.540;2023-12-29T03:50:56;10.03;;;2.90;;
16101;SDS011;56411;52.964;10.540;2023-12-29T03:53:23;11.87;;;2.90;;
16101;SDS011;56411;52.964;10.540;2023-12-29T03:55:50;8.50;;;2.70;;
16101;SDS011;56411;52.964;10.540;2023-12-29T03:58:17;7.87;;;2.63;;
16101;SDS011;56411;52.964;10.540;2023-12-29T04:00:44;9.70;;;2.77;;
16101;SDS011;56411;52.964;10.540;2023-12-29T04:03:11;10.77;;;3.00;;
16101;SDS011;56411;52.964;10.540;2023-12-29T04:05:38;10.33;;;2.90;;
16101;SDS011;56411;52.964;10.540;2023-12-29T04:08:07;9.70;;;2.60;;
16101;SDS011;56411;52.964;10.540;2023-12-29T04:10:34;9.77;;;2.80;;
16101;SDS011;56411;52.964;10.540;2023-12-29T04:13:01;11.90;;;2.90;;
16101;SDS011;56411;52.964;10.540;2023-12-29T04:15:28;6.90;;;2.40;;
16101;SDS011;56411;52.964;10.540;2023-12-29T04:17:55;9.53;;;2.80;;
16101;SDS011;56411;52.964;10.540;2023-12-29T04:20:22;9.70;;;2.47;;
16101;SDS011;56411;52.964;10.540;2023-12-29T04:22:49;6.10;;;2.37;;
16101;SDS011;56411;52.964;10.540;2023-12-29T04:25:18;8.13;;;2.70;;
16101;SDS011;56411;52.964;10.540;2023-12-29T04:27:45;7.77;;;2.57;;
16101;SDS011;56411;52.964;10.540;2023-12-29T04:30:12;9.20;;;2.60;;
16101;SDS011;56411;52.964;10.540;2023-12-29T04:32:40;8.67;;;2.30;;
16101;SDS011;56411;52.964;10.540;2023-12-29T04:35:07;7.27;;;2.40;;
16101;SDS011;56411;52.964;10.540;2023-12-29T04:37:37;9.73;;;2.53;;
16101;SDS011;56411;52.964;10.540;2023-12-29T04:40:04;9.47;;;2.30;;
16101;SDS011;56411;52.964;10.540;2023-12-29T04:42:33;8.77;;;2.60;;
16101;SDS011;56411;52.964;10.540;2023-12-29T04:45:00;8.17;;;2.30;;
16101;SDS011;56411;52.964;10.540;2023-12-29T04:47:27;10.87;;;2.40;;
16101;SDS011;56411;52.964;10.540;2023-12-29T04:49:54;9.03;;;2.50;;
16101;SDS011;56411;52.964;10.540;2023-12-29T04:52:21;7.80;;;2.40;;
16101;SDS011;56411;52.964;10.540;2023-12-29T04:54:48;9.57;;;2.50;;
16101;SDS011;56411;52.964;10.540;2023-12-29T04:57:16;8.80;;;2.30;;
16101;SDS011;56411;52.964;10.540;2023-12-29T04:59:44;3.10;;;1.90;;
16101;SDS011;56411;52.964;10.540;2023-12-29T05:02:12;8.40;;;2.50;;
16101;SDS011;56411;52.964;10.540;2023-12-29T05:04:39;6.30;;;2.37;;
16101;SDS011;56411;52.964;10.540;2023-12-29T05:07:08;7.67;;;2.77;;
16101;SDS011;56411;52.964;10.540;2023-12-29T05:09:35;8.70;;;2.30;;
16101;SDS011;56411;52.964;10.540;2023-12-29T05:12:03;9.37;;;2.97;;
16101;SDS011;56411;52.964;10.540;2023-12-29T05:14:30;5.93;;;2.10;;
16101;SDS011;56411;52.964;10.540;2023-12-29T05:16:59;10.03;;;2.60;;
16101;SDS011;56411;52.964;10.540;2023-12-29T05:19:26;5.37;;;2.10;;
16101;SDS011;56411;52.964;10.540;2023-12-29T05:21:53;5.17;;;1.93;;
16101;SDS011;56411;52.964;10.540;2023-12-29T05:24:20;5.17;;;1.97;;
16101;SDS011;56411;52.964;10.540;2023-12-29T05:26:47;5.70;;;2.07;;
16101;SDS011;56411;52.964;10.540;2023-12-29T05:29:14;5.60;;;2.10;;
16101;SDS011;56411;52.964;10.540;2023-12-29T05:31:41;5.80;;;2.10;;
16101;SDS011;56411;52.964;10.540;2023-12-29T05:34:09;6.23;;;2.10;;
16101;SDS011;56411;52.964;10.540;2023-12-29T05:36:36;8.33;;;2.87;;
16101;SDS011;56411;52.964;10.540;2023-12-29T05:39:04;7.80;;;2.43;;
16101;SDS011;56411;52.964;10.540;2023-12-29T05:41:32;5.27;;;2.50;;
16101;SDS011;56411;52.964;10.540;2023-12-29T05:43:59;5.90;;;2.30;;
16101;SDS011;56411;52.964;10.540;2023-12-29T05:46:26;6.17;;;2.20;;
16101;SDS011;56411;52.964;10.540;2023-12-29T05:48:53;7.93;;;2.40;;
16101;SDS011;56411;52.964;10.540;2023-12-29T05:51:21;6.27;;;2.10;;
16101;SDS011;56411;52.964;10.540;2023-12-29T05:53:48;6.80;;;2.13;;
16101;SDS011;56411;52.964;10.540;2023-12-29T05:56:16;7.67;;;2.27;;
16101;SDS011;56411;52.964;10.540;2023-12-29T05:58:43;6.00;;;2.10;;
16101;SDS011;56411;52.964;10.540;2023-12-29T06:01:10;5.33;;;2.00;;
16101;SDS011;56411;52.964;10.540;2023-12-29T06:03:38;7.73;;;2.73;;
16101;SDS011;56411;52.964;10.540;2023-12-29T06:06:05;7.30;;;2.20;;
16101;SDS011;56411;52.964;10.540;2023-12-29T06:08:33;4.67;;;2.33;;
16101;SDS011;56411;52.964;10.540;2023-12-29T06:11:00;4.47;;;1.97;;
16101;SDS011;56411;52.964;10.540;2023-12-29T06:13:27;7.77;;;2.30;;
16101;SDS011;56411;52.964;10.540;2023-12-29T06:15:55;8.30;;;2.40;;
16101;SDS011;56411;52.964;10.540;2023-12-29T06:18:22;7.80;;;2.43;;
16101;SDS011;56411;52.964;10.540;2023-12-29T06:20:49;6.53;;;2.47;;
16101;SDS011;56411;52.964;10.540;2023-12-29T06:23:16;5.60;;;2.83;;
16101;SDS011;56411;52.964;10.540;2023-12-29T06:25:45;5.37;;;2.30;;
16101;SDS011;56411;52.964;10.540;2023-12-29T06:28:12;5.53;;;2.23;;
16101;SDS011;56411;52.964;10.540;2023-12-29T06:30:39;4.50;;;2.20;;
16101;SDS011;56411;52.964;10.540;2023-12-29T06:33:06;8.53;;;2.50;;
16101;SDS011;56411;52.964;10.540;2023-12-29T06:35:33;9.20;;;2.80;;
16101;SDS011;56411;52.964;10.540;2023-12-29T06:38:00;6.37;;;2.50;;
16101;SDS011;56411;52.964;10.540;2023-12-29T06:40:27;6.53;;;2.50;;
16101;SDS011;56411;52.964;10.540;2023-12-29T06:42:56;7.30;;;2.80;;
16101;SDS011;56411;52.964;10.540;2023-12-29T06:45:23;7.37;;;2.57;;
16101;SDS011;56411;52.964;10.540;2023-12-29T06:47:50;5.30;;;2.40;;
16101;SDS011;56411;52.964;10.540;2023-12-29T06:50:17;6.47;;;2.00;;
16101;SDS011;56411;52.964;10.540;2023-12-29T06:52:44;8.27;;;2.60;;
16101;SDS011;56411;52.964;10.540;2023-12-29T06:55:11;6.40;;;2.23;;
16101;SDS011;56411;52.964;10.540;2023-12-29T06:57:39;6.13;;;2.37;;
16101;SDS011;56411;52.964;10.540;2023-12-29T07:00:08;7.97;;;2.40;;
16101;SDS011;56411;52.964;10.540;2023-12-29T07:02:37;5.73;;;2.30;;
16101;SDS011;56411;52.964;10.540;2023-12-29T07:05:05;7.03;;;2.80;;
16101;SDS011;56411;52.964;10.540;2023-12-29T07:07:34;7.27;;;2.83;;
16101;SDS011;56411;52.964;10.540;2023-12-29T07:10:02;8.50;;;3.03;;
16101;SDS011;56411;52.964;10.540;2023-12-29T07:12:31;8.93;;;3.73;;
16101;SDS011;56411;52.964;10.540;2023-12-29T07:14:58;8.83;;;3.70;;
16101;SDS011;56411;52.964;10.540;2023-12-29T07:17:27;8.73;;;4.03;;
16101;SDS011;56411;52.964;10.540;2023-12-29T07:19:54;10.97;;;3.80;;
16101;SDS011;56411;52.964;10.540;2023-12-29T07:22:21;10.73;;;4.00;;
16101;SDS011;56411;52.964;10.540;2023-12-29T07:24:48;12.73;;;4.10;;
16101;SDS011;56411;52.964;10.540;2023-12-29T07:27:16;13.47;;;4.20;;
16101;SDS011;56411;52.964;10.540;2023-12-29T07:29:43;11.53;;;4.23;;
16101;SDS011;56411;52.964;10.540;2023-12-29T07:32:10;12.33;;;4.57;;
16101;SDS011;56411;52.964;10.540;2023-12-29T07:34:39;10.67;;;4.30;;
16101;SDS011;56411;52.964;10.540;2023-12-29T07:37:06;12.17;;;4.20;;
16101;SDS011;56411;52.964;10.540;2023-12-29T07:39:35;14.53;;;4.50;;
16101;SDS011;56411;52.964;10.540;2023-12-29T07:42:03;12.40;;;4.10;;
16101;SDS011;56411;52.964;10.540;2023-12-29T07:44:30;13.60;;;4.27;;
16101;SDS011;56411;52.964;10.540;2023-12-29T07:46:58;12.97;;;4.63;;
16101;SDS011;56411;52.964;10.540;2023-12-29T07:49:25;11.40;;;4.40;;
16101;SDS011;56411;52.964;10.540;2023-12-29T07:51:54;11.07;;;4.60;;
16101;SDS011;56411;52.964;10.540;2023-12-29T07:54:24;14.27;;;4.50;;
16101;SDS011;56411;52.964;10.540;2023-12-29T07:56:51;12.00;;;4.40;;
16101;SDS011;56411;52.964;10.540;2023-12-29T07:59:18;13.27;;;4.50;;
16101;SDS011;56411;52.964;10.540;2023-12-29T08:01:46;13.03;;;5.03;;
16101;SDS011;56411;52.964;10.540;2023-12-29T08:04:13;12.53;;;4.50;;
16101;SDS011;56411;52.964;10.540;2023-12-29T08:06:40;10.40;;;3.20;;
16101;SDS011;56411;52.964;10.540;2023-12-29T08:09:09;10.60;;;3.17;;
16101;SDS011;56411;52.964;10.540;2023-12-29T08:11:36;13.27;;;3.20;;
16101;SDS011;56411;52.964;10.540;2023-12-29T08:14:03;10.07;;;2.87;;
16101;SDS011;56411;52.964;10.540;2023-12-29T08:16:31;10.27;;;3.20;;
16101;SDS011;56411;52.964;10.540;2023-12-29T08:18:58;12.67;;;3.37;;
16101;SDS011;56411;52.964;10.540;2023-12-29T08:21:25;9.60;;;3.20;;
16101;SDS011;56411;52.964;10.540;2023-12-29T08:23:54;9.07;;;2.93;;
16101;SDS011;56411;52.964;10.540;2023-12-29T08:26:22;11.13;;;2.80;;
16101;SDS011;56411;52.964;10.540;2023-12-29T08:28:49;8.63;;;2.50;;
16101;SDS011;56411;52.964;10.540;2023-12-29T08:31:18;6.77;;;2.53;;
16101;SDS011;56411;52.964;10.540;2023-12-29T08:33:45;9.93;;;2.67;;
16101;SDS011;56411;52.964;10.540;2023-12-29T08:36:13;8.77;;;2.40;;
16101;SDS011;56411;52.964;10.540;2023-12-29T08:38:40;9.23;;;2.27;;
16101;SDS011;56411;52.964;10.540;2023-12-29T08:41:07;9.33;;;2.13;;
16101;SDS011;56411;52.964;10.540;2023-12-29T08:43:35;9.37;;;2.30;;
16101;SDS011;56411;52.964;10.540;2023-12-29T08:46:02;9.77;;;2.10;;
16101;SDS011;56411;52.964;10.540;2023-12-29T08:48:30;8.10;;;1.90;;
16101;SDS011;56411;52.964;10.540;2023-12-29T08:50:57;5.80;;;1.80;;
16101;SDS011;56411;52.964;10.540;2023-12-29T08:53:24;8.10;;;2.20;;
16101;SDS011;56411;52.964;10.540;2023-12-29T08:55:51;7.40;;;2.10;;
16101;SDS011;56411;52.964;10.540;2023-12-29T08:58:18;8.50;;;2.50;;
16101;SDS011;56411;52.964;10.540;2023-12-29T09:00:46;8.07;;;2.30;;
16101;SDS011;56411;52.964;10.540;2023-12-29T09:03:13;10.10;;;2.70;;
16101;SDS011;56411;52.964;10.540;2023-12-29T09:05:40;12.20;;;2.83;;
16101;SDS011;56411;52.964;10.540;2023-12-29T09:08:07;13.33;;;3.10;;
16101;SDS011;56411;52.964;10.540;2023-12-29T09:10:38;13.97;;;3.40;;
16101;SDS011;56411;52.964;10.540;2023-12-29T09:13:05;15.67;;;4.40;;
16101;SDS011;56411;52.964;10.540;2023-12-29T09:15:32;16.83;;;4.60;;
16101;SDS011;56411;52.964;10.540;2023-12-29T09:18:01;13.70;;;4.43;;
16101;SDS011;56411;52.964;10.540;2023-12-29T09:20:28;15.83;;;4.60;;
16101;SDS011;56411;52.964;10.540;2023-12-29T09:22:55;13.23;;;4.43;;
16101;SDS011;56411;52.964;10.540;2023-12-29T09:25:23;13.03;;;4.40;;
16101;SDS011;56411;52.964;10.540;2023-12-29T09:27:50;13.87;;;4.30;;
16101;SDS011;56411;52.964;10.540;2023-12-29T09:30:17;21.43;;;5.73;;
16101;SDS011;56411;52.964;10.540;2023-12-29T09:32:44;15.77;;;4.90;;
16101;SDS011;56411;52.964;10.540;2023-12-29T09:35:13;13.00;;;5.00;;
16101;SDS011;56411;52.964;10.540;2023-12-29T09:37:40;15.87;;;5.27;;
16101;SDS011;56411;52.964;10.540;2023-12-29T09:40:08;15.17;;;4.70;;
16101;SDS011;56411;52.964;10.540;2023-12-29T09:42:37;15.47;;;5.20;;
16101;SDS011;56411;52.964;10.540;2023-12-29T09:45:06;17.43;;;4.80;;
16101;SDS011;56411;52.964;10.540;2023-12-29T09:47:38;15.20;;;4.77;;
16101;SDS011;56411;52.964;10.540;2023-12-29T09:50:06;15.03;;;4.90;;
16101;SDS011;56411;52.964;10.540;2023-12-29T09:52:38;16.87;;;4.90;;
16101;SDS011;56411;52.964;10.540;2023-12-29T09:55:08;17.90;;;4.70;;
16101;SDS011;56411;52.964;10.540;2023-12-29T09:57:36;13.87;;;4.70;;
16101;SDS011;56411;52.964;10.540;2023-12-29T10:00:04;14.20;;;4.50;;
16101;SDS011;56411;52.964;10.540;2023-12-29T10:02:33;15.80;;;4.70;;
16101;SDS011;56411;52.964;10.540;2023-12-29T10:05:01;15.17;;;4.60;;
16101;SDS011;56411;52.964;10.540;2023-12-29T10:07:31;13.30;;;4.20;;
16101;SDS011;56411;52.964;10.540;2023-12-29T10:10:06;15.67;;;4.83;;
16101;SDS011;56411;52.964;10.540;2023-12-29T10:12:34;13.90;;;4.60;;
16101;SDS011;56411;52.964;10.540;2023-12-29T10:15:05;16.20;;;4.73;;
16101;SDS011;56411;52.964;10.540;2023-12-29T10:17:41;15.93;;;4.37;;
16101;SDS011;56411;52.964;10.540;2023-12-29T10:20:25;12.87;;;4.27;;
16101;SDS011;56411;52.964;10.540;2023-12-29T10:23:04;16.53;;;4.60;;
16101;SDS011;56411;52.964;10.540;2023-12-29T10:25:36;16.07;;;4.23;;
16101;SDS011;56411;52.964;10.540;2023-12-29T10:28:03;15.80;;;4.37;;
16101;SDS011;56411;52.964;10.540;2023-12-29T10:30:31;11.33;;;3.70;;
16101;SDS011;56411;52.964;10.540;2023-12-29T10:32:58;13.10;;;3.90;;
16101;SDS011;56411;52.964;10.540;2023-12-29T10:35:28;15.40;;;4.13;;
16101;SDS011;56411;52.964;10.540;2023-12-29T10:38:06;13.57;;;3.70;;
16101;SDS011;56411;52.964;10.540;2023-12-29T10:40:37;13.37;;;3.60;;
16101;SDS011;56411;52.964;10.540;2023-12-29T10:43:04;7.77;;;3.30;;
16101;SDS011;56411;52.964;10.540;2023-12-29T10:45:33;9.57;;;3.10;;
16101;SDS011;56411;52.964;10.540;2023-12-29T10:48:01;13.70;;;3.50;;
16101;SDS011;56411;52.964;10.540;2023-12-29T10:50:29;11.13;;;3.47;;
16101;SDS011;56411;52.964;10.540;2023-12-29T10:53:10;14.07;;;3.43;;
16101;SDS011;56411;52.964;10.540;2023-12-29T10:55:39;10.23;;;3.23;;
16101;SDS011;56411;52.964;10.540;2023-12-29T10:58:06;14.50;;;3.70;;
16101;SDS011;56411;52.964;10.540;2023-12-29T11:00:34;14.80;;;4.07;;
16101;SDS011;56411;52.964;10.540;2023-12-29T11:03:01;11.83;;;3.40;;
16101;SDS011;56411;52.964;10.540;2023-12-29T11:05:28;12.50;;;3.87;;
16101;SDS011;56411;52.964;10.540;2023-12-29T11:07:55;14.30;;;3.60;;
16101;SDS011;56411;52.964;10.540;2023-12-29T11:10:24;11.47;;;3.40;;
16101;SDS011;56411;52.964;10.540;2023-12-29T11:12:53;11.60;;;3.27;;
16101;SDS011;56411;52.964;10.540;2023-12-29T11:15:21;12.33;;;3.20;;
16101;SDS011;56411;52.964;10.540;2023-12-29T11:17:50;10.07;;;2.97;;
16101;SDS011;56411;52.964;10.540;2023-12-29T11:20:19;12.30;;;3.03;;
16101;SDS011;56411;52.964;10.540;2023-12-29T11:22:47;10.43;;;3.53;;
16101;SDS011;56411;52.964;10.540;2023-12-29T11:25:14;12.30;;;2.97;;
16101;SDS011;56411;52.964;10.540;2023-12-29T11:27:42;8.33;;;2.77;;
16101;SDS011;56411;52.964;10.540;2023-12-29T11:30:11;9.50;;;2.60;;
16101;SDS011;56411;52.964;10.540;2023-12-29T11:32:42;10.98;;;2.70;;
16101;SDS011;56411;52.964;10.540;2023-12-29T11:35:17;8.07;;;2.70;;
16101;SDS011;56411;52.964;10.540;2023-12-29T11:37:52;9.20;;;2.87;;
16101;SDS011;56411;52.964;10.540;2023-12-29T11:40:48;10.40;;;3.03;;
16101;SDS011;56411;52.964;10.540;2023-12-29T11:43:18;11.73;;;3.40;;
16101;SDS011;56411;52.964;10.540;2023-12-29T11:45:49;11.90;;;3.43;;
16101;SDS011;56411;52.964;10.540;2023-12-29T11:51:33;6.37;;;2.53;;
16101;SDS011;56411;52.964;10.540;2023-12-29T11:54:01;5.80;;;2.07;;
16101;SDS011;56411;52.964;10.540;2023-12-29T11:56:36;4.43;;;1.77;;
16101;SDS011;56411;52.964;10.540;2023-12-29T11:59:14;8.53;;;2.03;;
16101;SDS011;56411;52.964;10.540;2023-12-29T12:01:45;6.20;;;2.20;;
16101;SDS011;56411;52.964;10.540;2023-12-29T12:07:04;5.13;;;2.10;;
16101;SDS011;56411;52.964;10.540;2023-12-29T12:09:33;7.37;;;2.00;;
16101;SDS011;56411;52.964;10.540;2023-12-29T12:12:00;6.23;;;1.97;;
16101;SDS011;56411;52.964;10.540;2023-12-29T12:14:43;5.33;;;1.80;;
16101;SDS011;56411;52.964;10.540;2023-12-29T12:17:12;4.97;;;2.10;;
16101;SDS011;56411;52.964;10.540;2023-12-29T12:19:52;5.70;;;1.90;;
16101;SDS011;56411;52.964;10.540;2023-12-29T12:22:22;2.50;;;1.70;;
16101;SDS011;56411;52.964;10.540;2023-12-29T12:24:54;4.67;;;1.80;;
16101;SDS011;56411;52.964;10.540;2023-12-29T12:27:22;3.07;;;1.77;;
16101;SDS011;56411;52.964;10.540;2023-12-29T12:29:52;4.07;;;1.67;;
16101;SDS011;56411;52.964;10.540;2023-12-29T12:32:25;4.00;;;1.60;;
16101;SDS011;56411;52.964;10.540;2023-12-29T12:34:53;4.03;;;2.23;;
16101;SDS011;56411;52.964;10.540;2023-12-29T12:37:21;2.37;;;1.43;;
16101;SDS011;56411;52.964;10.540;2023-12-29T12:39:49;2.67;;;1.43;;
16101;SDS011;56411;52.964;10.540;2023-12-29T12:42:17;1.70;;;1.20;;
16101;SDS011;56411;52.964;10.540;2023-12-29T12:44:49;2.57;;;1.47;;
16101;SDS011;56411;52.964;10.540;2023-12-29T12:47:27;2.83;;;1.60;;
16101;SDS011;56411;52.964;10.540;2023-12-29T12:49:59;5.30;;;1.53;;
16101;SDS011;56411;52.964;10.540;2023-12-29T12:52:30;3.53;;;1.50;;
16101;SDS011;56411;52.964;10.540;2023-12-29T12:54:57;5.13;;;1.60;;
16101;SDS011;56411;52.964;10.540;2023-12-29T12:57:25;3.03;;;1.43;;
16101;SDS011;56411;52.964;10.540;2023-12-29T12:59:52;3.43;;;1.70;;
16101;SDS011;56411;52.964;10.540;2023-12-29T13:02:20;3.57;;;1.50;;
16101;SDS011;56411;52.964;10.540;2023-12-29T13:04:49;4.80;;;1.70;;
16101;SDS011;56411;52.964;10.540;2023-12-29T13:07:18;3.67;;;1.47;;
16101;SDS011;56411;52.964;10.540;2023-12-29T13:09:45;5.33;;;1.70;;
16101;SDS011;56411;52.964;10.540;2023-12-29T13:12:14;5.43;;;1.50;;
16101;SDS011;56411;52.964;10.540;2023-12-29T13:14:42;3.10;;;1.40;;
16101;SDS011;56411;52.964;10.540;2023-12-29T13:17:09;3.57;;;1.40;;
16101;SDS011;56411;52.964;10.540;2023-12-29T13:19:39;5.30;;;1.40;;
16101;SDS011;56411;52.964;10.540;2023-12-29T13:22:09;3.97;;;1.60;;
16101;SDS011;56411;52.964;10.540;2023-12-29T13:24:42;4.73;;;1.30;;
16101;SDS011;56411;52.964;10.540;2023-12-29T13:27:09;4.37;;;1.47;;
16101;SDS011;56411;52.964;10.540;2023-12-29T13:29:38;3.30;;;1.40;;
16101;SDS011;56411;52.964;10.540;2023-12-29T13:32:07;3.75;;;1.50;;
16101;SDS011;56411;52.964;10.540;2023-12-29T13:34:39;4.60;;;1.33;;
16101;SDS011;56411;52.964;10.540;2023-12-29T13:37:17;4.60;;;1.60;;
16101;SDS011;56411;52.964;10.540;2023-12-29T13:39:51;6.43;;;1.50;;
16101;SDS011;56411;52.964;10.540;2023-12-29T13:42:20;2.93;;;1.50;;
16101;SDS011;56411;52.964;10.540;2023-12-29T13:44:50;6.27;;;1.30;;
16101;SDS011;56411;52.964;10.540;2023-12-29T13:47:20;3.37;;;1.20;;
16101;SDS011;56411;52.964;10.540;2023-12-29T13:49:48;4.13;;;1.30;;
16101;SDS011;56411;52.964;10.540;2023-12-29T13:52:17;8.87;;;1.90;;
16101;SDS011;56411;52.964;10.540;2023-12-29T13:54:45;2.63;;;1.30;;
16101;SDS011;56411;52.964;10.540;2023-12-29T13:57:12;4.33;;;1.40;;
16101;SDS011;56411;52.964;10.540;2023-12-29T13:59:40;6.90;;;1.53;;
16101;SDS011;56411;52.964;10.540;2023-12-29T14:02:19;2.23;;;1.40;;
16101;SDS011;56411;52.964;10.540;2023-12-29T14:07:39;5.23;;;1.60;;
16101;SDS011;56411;52.964;10.540;2023-12-29T14:10:11;5.13;;;1.47;;
16101;SDS011;56411;52.964;10.540;2023-12-29T14:12:39;3.63;;;1.43;;
16101;SDS011;56411;52.964;10.540;2023-12-29T14:15:07;5.87;;;2.30;;
16101;SDS011;56411;52.964;10.540;2023-12-29T14:17:35;5.23;;;1.60;;
16101;SDS011;56411;52.964;10.540;2023-12-29T14:20:03;4.20;;;1.53;;
16101;SDS011;56411;52.964;10.540;2023-12-29T14:22:32;6.50;;;1.60;;
16101;SDS011;56411;52.964;10.540;2023-12-29T14:25:01;1.63;;;1.40;;
16101;SDS011;56411;52.964;10.540;2023-12-29T14:27:29;4.57;;;1.50;;
16101;SDS011;56411;52.964;10.540;2023-12-29T14:29:56;2.57;;;1.43;;
16101;SDS011;56411;52.964;10.540;2023-12-29T14:32:24;4.13;;;1.60;;
16101;SDS011;56411;52.964;10.540;2023-12-29T14:34:53;4.10;;;1.73;;
16101;SDS011;56411;52.964;10.540;2023-12-29T14:37:21;5.40;;;1.90;;
16101;SDS011;56411;52.964;10.540;2023-12-29T14:39:48;5.23;;;2.33;;
16101;SDS011;56411;52.964;10.540;2023-12-29T14:42:17;4.30;;;1.77;;
16101;SDS011;56411;52.964;10.540;2023-12-29T14:44:47;5.20;;;1.87;;
16101;SDS011;56411;52.964;10.540;2023-12-29T14:47:14;4.70;;;2.17;;